createdAt,value
2018-08-20T00:00:05.528Z,7.40
2018-08-20T00:02:36.592Z,8.20
2018-08-20T00:05:05.930Z,7.30
2018-08-20T00:07:34.153Z,7.00
2018-08-20T00:10:02.380Z,5.80
2018-08-20T00:12:30.529Z,5.80
2018-08-20T00:14:58.715Z,7.90
2018-08-20T00:17:26.873Z,7.60
2018-08-20T00:19:55.061Z,8.10
2018-08-20T00:22:23.228Z,8.70
2018-08-20T00:25:02.909Z,8.90
2018-08-20T00:27:31.730Z,9.10
2018-08-20T00:29:59.937Z,8.00
2018-08-20T00:32:28.098Z,8.30
2018-08-20T00:34:56.271Z,7.50
2018-08-20T00:37:24.466Z,10.90
2018-08-20T00:39:52.581Z,9.30
2018-08-20T00:42:20.734Z,12.80
2018-08-20T00:44:48.974Z,12.10
2018-08-20T00:47:17.173Z,11.20
2018-08-20T00:49:45.441Z,10.80
2018-08-20T00:52:13.723Z,11.40
2018-08-20T00:54:41.872Z,11.70
2018-08-20T00:57:10.058Z,11.70
2018-08-20T00:59:38.224Z,11.50
2018-08-20T01:02:06.365Z,11.50
2018-08-20T01:04:34.573Z,12.10
2018-08-20T01:07:03.060Z,13.40
2018-08-20T01:09:31.241Z,12.10
2018-08-20T01:11:59.404Z,11.20
2018-08-20T01:14:27.568Z,12.30
2018-08-20T01:16:55.761Z,11.90
2018-08-20T01:19:23.914Z,9.50
2018-08-20T01:21:52.068Z,9.80
2018-08-20T01:24:20.279Z,11.50
2018-08-20T01:26:48.444Z,12.10
2018-08-20T01:29:16.602Z,12.10
2018-08-20T01:31:44.790Z,12.80
2018-08-20T01:34:13.290Z,12.70
2018-08-20T01:36:43.062Z,11.80
2018-08-20T01:39:11.254Z,11.00
2018-08-20T01:41:39.438Z,11.20
2018-08-20T01:44:07.686Z,11.50
2018-08-20T01:46:35.873Z,12.70
2018-08-20T01:49:04.058Z,11.80
2018-08-20T01:51:32.221Z,11.50
2018-08-20T01:54:00.421Z,10.80
2018-08-20T01:56:28.694Z,11.00
2018-08-20T01:58:56.861Z,11.80
2018-08-20T02:01:25.090Z,12.10
2018-08-20T02:03:53.302Z,11.30
2018-08-20T02:06:21.893Z,11.90
2018-08-20T02:08:50.069Z,10.90
2018-08-20T02:11:18.241Z,11.70
2018-08-20T02:13:46.402Z,11.50
2018-08-20T02:16:14.566Z,12.00
2018-08-20T02:18:42.740Z,12.10
2018-08-20T02:21:10.935Z,12.60
2018-08-20T02:23:39.101Z,12.80
2018-08-20T02:26:07.365Z,12.80
2018-08-20T02:28:35.525Z,11.50
2018-08-20T02:31:03.700Z,12.90
2018-08-20T02:33:31.930Z,11.60
2018-08-20T02:36:00.215Z,10.30
2018-08-20T02:38:29.333Z,8.60
2018-08-20T02:40:57.451Z,8.60
2018-08-20T02:43:25.609Z,8.70
2018-08-20T02:45:53.785Z,8.40
2018-08-20T02:48:21.917Z,8.80
2018-08-20T02:50:50.122Z,8.00
2018-08-20T02:53:18.295Z,8.20
2018-08-20T02:55:46.471Z,7.90
2018-08-20T02:58:14.665Z,7.50
2018-08-20T03:00:42.835Z,7.50
2018-08-20T03:03:11.017Z,7.60
2018-08-20T03:05:39.188Z,7.80
2018-08-20T03:08:07.364Z,7.60
2018-08-20T03:10:35.535Z,7.60
2018-08-20T03:13:03.710Z,8.60
2018-08-20T03:15:31.873Z,9.10
2018-08-20T03:18:00.058Z,9.50
2018-08-20T03:20:28.194Z,8.70
2018-08-20T03:22:56.424Z,10.20
2018-08-20T03:25:24.578Z,9.60
2018-08-20T03:27:52.740Z,9.70
2018-08-20T03:30:20.889Z,9.30
2018-08-20T03:32:49.106Z,9.10
2018-08-20T03:35:17.228Z,10.40
2018-08-20T03:37:45.456Z,10.60
2018-08-20T03:40:13.615Z,11.00
2018-08-20T03:42:42.242Z,10.90
2018-08-20T03:45:10.903Z,10.80
2018-08-20T03:47:39.081Z,10.20
2018-08-20T03:50:09.465Z,10.10
2018-08-20T03:52:37.625Z,10.30
2018-08-20T03:55:05.890Z,10.50
2018-08-20T03:57:34.385Z,10.20
2018-08-20T04:00:02.614Z,9.70
2018-08-20T04:02:30.776Z,10.20
2018-08-20T04:04:58.944Z,8.70
2018-08-20T04:07:27.128Z,8.50
2018-08-20T04:09:55.302Z,9.10
2018-08-20T04:12:23.466Z,8.10
2018-08-20T04:14:51.641Z,8.30
2018-08-20T04:17:19.844Z,8.00
2018-08-20T04:19:48.001Z,8.80
2018-08-20T04:22:16.158Z,8.50
2018-08-20T04:24:44.342Z,8.20
2018-08-20T04:27:12.508Z,8.50
2018-08-20T04:29:40.695Z,8.10
2018-08-20T04:32:08.854Z,8.60
2018-08-20T04:34:37.039Z,7.70
2018-08-20T04:37:06.013Z,8.40
2018-08-20T04:39:34.206Z,8.30
2018-08-20T04:42:02.415Z,8.50
2018-08-20T04:44:30.560Z,7.70
2018-08-20T04:46:58.726Z,7.60
2018-08-20T04:49:27.929Z,7.90
2018-08-20T04:51:56.080Z,7.60
2018-08-20T04:54:24.276Z,8.50
2018-08-20T04:56:52.450Z,7.20
2018-08-20T04:59:20.613Z,8.30
2018-08-20T05:01:48.785Z,7.40
2018-08-20T05:04:16.978Z,7.20
2018-08-20T05:06:45.136Z,7.80
2018-08-20T05:09:13.320Z,7.70
2018-08-20T05:11:41.487Z,8.40
2018-08-20T05:14:09.669Z,7.80
2018-08-20T05:16:37.837Z,6.90
2018-08-20T05:19:06.015Z,7.50
2018-08-20T05:21:34.174Z,8.30
2018-08-20T05:24:02.385Z,8.50
2018-08-20T05:26:30.679Z,8.40
2018-08-20T05:28:58.917Z,7.70
2018-08-20T05:31:27.086Z,9.20
2018-08-20T05:33:55.260Z,8.70
2018-08-20T05:36:23.426Z,8.60
2018-08-20T05:38:51.552Z,9.60
2018-08-20T05:41:19.695Z,8.80
2018-08-20T05:43:47.850Z,8.50
2018-08-20T05:46:15.976Z,8.40
2018-08-20T05:48:44.117Z,7.90
2018-08-20T05:51:12.270Z,7.10
2018-08-20T05:53:40.403Z,7.80
2018-08-20T05:56:08.557Z,8.80
2018-08-20T05:58:36.719Z,6.80
2018-08-20T06:01:04.992Z,6.90
2018-08-20T06:03:33.161Z,7.10
2018-08-20T06:06:01.476Z,6.70
2018-08-20T06:08:29.594Z,6.50
2018-08-20T06:10:57.726Z,5.70
2018-08-20T06:13:25.834Z,4.90
2018-08-20T06:15:53.962Z,4.90
2018-08-20T06:18:22.086Z,5.40
2018-08-20T06:20:50.227Z,4.40
2018-08-20T06:23:18.354Z,4.30
2018-08-20T06:25:46.490Z,4.60
2018-08-20T06:28:14.622Z,4.00
2018-08-20T06:30:42.750Z,3.20
2018-08-20T06:33:10.938Z,4.40
2018-08-20T06:35:39.114Z,3.80
2018-08-20T06:38:07.211Z,2.80
2018-08-20T06:40:35.350Z,2.20
2018-08-20T06:43:03.473Z,1.20
2018-08-20T06:45:31.604Z,1.10
2018-08-20T06:47:59.725Z,1.70
2018-08-20T06:50:27.882Z,2.60
2018-08-20T06:52:56.097Z,1.20
2018-08-20T06:55:24.223Z,1.60
2018-08-20T06:57:52.345Z,1.00
2018-08-20T07:00:20.465Z,1.00
2018-08-20T07:02:48.614Z,1.00
2018-08-20T07:05:16.778Z,1.00
2018-08-20T07:07:44.929Z,1.00
2018-08-20T07:10:13.889Z,1.00
2018-08-20T07:12:42.236Z,1.00
2018-08-20T07:15:12.249Z,1.00
2018-08-20T07:17:40.413Z,1.00
2018-08-20T07:20:10.506Z,1.00
2018-08-20T07:22:38.670Z,1.00
2018-08-20T07:25:07.510Z,1.00
2018-08-20T07:27:36.598Z,1.00
2018-08-20T07:30:06.954Z,1.00
2018-08-20T07:32:35.162Z,1.00
2018-08-20T07:35:03.326Z,1.00
2018-08-20T07:37:31.474Z,1.00
2018-08-20T07:39:59.609Z,1.40
2018-08-20T07:42:27.803Z,1.00
2018-08-20T07:44:55.901Z,1.00
2018-08-20T07:47:24.050Z,1.40
2018-08-20T07:49:52.190Z,1.00
2018-08-20T07:52:20.337Z,1.00
2018-08-20T07:54:48.466Z,1.00
2018-08-20T07:57:16.609Z,1.00
2018-08-20T07:59:44.745Z,1.00
2018-08-20T08:02:12.883Z,1.00
2018-08-20T08:04:41.816Z,1.00
2018-08-20T08:07:09.954Z,1.00
2018-08-20T08:09:38.093Z,1.00
2018-08-20T08:12:06.679Z,2.70
2018-08-20T08:14:34.798Z,3.80
2018-08-20T08:17:02.950Z,4.80
2018-08-20T08:19:31.064Z,6.00
2018-08-20T08:21:59.206Z,8.10
2018-08-20T08:24:27.333Z,7.90
2018-08-20T08:26:55.474Z,8.10
2018-08-20T08:29:23.602Z,7.10
2018-08-20T08:31:51.728Z,6.80
2018-08-20T08:34:19.845Z,5.50
2018-08-20T08:36:47.985Z,5.70
2018-08-20T08:39:16.112Z,3.40
2018-08-20T08:41:44.242Z,1.00
2018-08-20T08:44:12.359Z,1.00
2018-08-20T08:46:40.480Z,1.00
2018-08-20T08:49:08.615Z,1.00
2018-08-20T08:51:36.792Z,1.00
2018-08-20T08:54:04.920Z,1.00
2018-08-20T08:56:33.070Z,1.00
2018-08-20T08:59:01.203Z,1.00
2018-08-20T09:01:29.337Z,1.00
2018-08-20T09:03:57.477Z,1.00
2018-08-20T09:06:25.609Z,1.00
2018-08-20T09:08:53.792Z,1.00
2018-08-20T09:11:22.142Z,1.00
2018-08-20T09:13:50.339Z,1.00
2018-08-20T09:16:18.626Z,1.00
2018-08-20T09:18:46.759Z,1.00
2018-08-20T09:21:14.875Z,1.00
2018-08-20T09:23:43.037Z,1.00
2018-08-20T09:26:11.168Z,1.00
2018-08-20T09:28:39.308Z,1.00
2018-08-20T09:31:07.441Z,1.00
2018-08-20T09:33:35.590Z,1.00
2018-08-20T09:36:03.725Z,1.00
2018-08-20T09:38:31.861Z,1.00
2018-08-20T09:41:00.048Z,1.00
2018-08-20T09:43:28.186Z,1.00
2018-08-20T09:45:56.322Z,1.00
2018-08-20T09:48:24.459Z,1.00
2018-08-20T09:50:52.589Z,1.00
2018-08-20T09:53:20.748Z,1.00
2018-08-20T09:55:48.868Z,1.00
2018-08-20T09:58:16.998Z,1.00
2018-08-20T10:00:45.122Z,1.00
2018-08-20T10:03:13.270Z,1.00
2018-08-20T10:05:41.405Z,1.00
2018-08-20T10:08:09.774Z,1.00
2018-08-20T10:10:37.898Z,1.00
2018-08-20T10:13:06.057Z,1.00
2018-08-20T10:15:34.189Z,1.00
2018-08-20T10:18:02.390Z,1.00
2018-08-20T10:20:30.533Z,1.00
2018-08-20T10:22:58.672Z,1.00
2018-08-20T10:25:26.792Z,1.00
2018-08-20T10:27:54.940Z,1.00
2018-08-20T10:30:23.069Z,1.00
2018-08-20T10:32:51.210Z,1.00
2018-08-20T10:35:19.322Z,1.00
2018-08-20T10:37:47.619Z,1.00
2018-08-20T10:40:15.599Z,1.00
2018-08-20T10:42:43.741Z,1.00
2018-08-20T10:45:15.349Z,1.00
2018-08-20T10:47:44.749Z,1.00
2018-08-20T10:50:14.523Z,1.00
2018-08-20T10:52:43.297Z,1.00
2018-08-20T10:55:11.428Z,1.00
2018-08-20T10:57:39.576Z,1.00
2018-08-20T11:00:07.969Z,1.00
2018-08-20T11:02:36.131Z,1.00
2018-08-20T11:05:04.770Z,1.00
2018-08-20T11:07:32.932Z,1.00
2018-08-20T11:10:01.062Z,1.00
2018-08-20T11:12:29.182Z,1.00
2018-08-20T11:14:57.332Z,1.00
2018-08-20T11:17:25.577Z,1.00
2018-08-20T11:19:53.726Z,1.00
2018-08-20T11:22:21.844Z,1.00
2018-08-20T11:24:49.974Z,1.00
2018-08-20T11:27:18.096Z,1.00
2018-08-20T11:29:46.233Z,1.00
2018-08-20T11:32:14.375Z,1.00
2018-08-20T11:34:42.519Z,1.00
2018-08-20T11:37:11.246Z,1.00
2018-08-20T11:39:39.381Z,1.00
2018-08-20T11:42:07.514Z,1.00
2018-08-20T11:44:35.661Z,1.00
2018-08-20T11:47:04.041Z,1.00
2018-08-20T11:49:32.178Z,1.00
2018-08-20T11:52:00.634Z,1.00
2018-08-20T11:54:28.882Z,1.00
2018-08-20T11:56:57.065Z,1.00
2018-08-20T11:59:25.212Z,1.00
2018-08-20T12:01:53.421Z,1.00
2018-08-20T12:04:22.866Z,1.00
2018-08-20T12:06:51.206Z,1.00
2018-08-20T12:09:19.323Z,1.00
2018-08-20T12:11:47.610Z,1.00
2018-08-20T12:14:15.794Z,1.00
2018-08-20T12:16:43.932Z,1.00
2018-08-20T12:19:12.213Z,1.00
2018-08-20T12:21:40.309Z,1.00
2018-08-20T12:24:08.425Z,1.00
2018-08-20T12:26:36.538Z,1.00
2018-08-20T12:29:04.731Z,1.00
2018-08-20T12:31:32.838Z,1.00
2018-08-20T12:34:00.977Z,1.00
2018-08-20T12:36:29.103Z,1.00
2018-08-20T12:38:57.229Z,1.00
2018-08-20T12:41:25.342Z,1.00
2018-08-20T12:43:53.495Z,1.00
2018-08-20T12:46:21.611Z,1.00
2018-08-20T12:48:51.517Z,1.00
2018-08-20T12:51:20.402Z,1.00
2018-08-20T12:53:48.553Z,1.00
2018-08-20T12:56:16.690Z,1.00
2018-08-20T12:58:53.678Z,1.00
2018-08-20T13:01:21.795Z,1.00
2018-08-20T13:03:50.490Z,1.00
2018-08-20T13:06:18.637Z,1.00
2018-08-20T13:08:47.568Z,1.00
2018-08-20T13:11:16.146Z,1.00
2018-08-20T13:13:44.716Z,1.00
2018-08-20T13:16:12.977Z,1.00
2018-08-20T13:18:40.989Z,1.00
2018-08-20T13:21:09.146Z,1.00
2018-08-20T13:23:37.311Z,1.00
2018-08-20T13:26:05.574Z,1.00
2018-08-20T13:28:33.709Z,1.00
2018-08-20T13:31:02.251Z,1.00
2018-08-20T13:33:30.663Z,1.00
2018-08-20T13:35:58.815Z,1.00
2018-08-20T13:38:26.938Z,1.00
2018-08-20T13:40:55.082Z,1.00
2018-08-20T13:43:23.222Z,1.00
2018-08-20T13:45:51.366Z,1.00
2018-08-20T13:48:19.505Z,1.00
2018-08-20T13:50:47.646Z,1.00
2018-08-20T13:53:15.782Z,1.00
2018-08-20T13:55:43.920Z,1.00
2018-08-20T13:58:12.042Z,1.00
2018-08-20T14:00:40.193Z,1.00
2018-08-20T14:03:08.326Z,1.00
2018-08-20T14:05:36.462Z,1.00
2018-08-20T14:08:04.906Z,1.00
2018-08-20T14:10:33.028Z,1.00
2018-08-20T14:13:01.150Z,1.00
2018-08-20T14:15:29.337Z,1.00
2018-08-20T14:17:57.454Z,1.00
2018-08-20T14:20:25.590Z,1.00
2018-08-20T14:22:53.716Z,1.00
2018-08-20T14:25:21.850Z,1.00
2018-08-20T14:27:50.018Z,1.00
2018-08-20T14:30:18.188Z,1.00
2018-08-20T14:32:46.378Z,1.00
2018-08-20T14:35:14.496Z,1.00
2018-08-20T14:37:42.617Z,1.00
2018-08-20T14:40:13.485Z,1.00
2018-08-20T14:42:41.958Z,1.00
2018-08-20T14:45:11.781Z,1.00
2018-08-20T14:47:41.041Z,1.00
2018-08-20T14:50:13.672Z,1.00
2018-08-20T14:52:42.157Z,1.00
2018-08-20T14:55:10.818Z,1.00
2018-08-20T14:57:38.945Z,1.00
2018-08-20T15:00:09.494Z,1.00
2018-08-20T15:02:37.658Z,1.00
2018-08-20T15:05:05.802Z,1.00
2018-08-20T15:07:35.756Z,1.00
2018-08-20T15:10:04.317Z,1.00
2018-08-20T15:12:32.459Z,1.00
2018-08-20T15:15:00.631Z,1.00
2018-08-20T15:17:28.741Z,1.00
2018-08-20T15:19:56.865Z,1.00
2018-08-20T15:22:25.003Z,1.00
2018-08-20T15:24:53.141Z,1.00
2018-08-20T15:27:21.266Z,1.00
2018-08-20T15:29:49.376Z,1.00
2018-08-20T15:32:17.567Z,1.00
2018-08-20T15:34:45.639Z,1.00
2018-08-20T15:37:13.776Z,1.00
2018-08-20T15:39:42.008Z,1.00
2018-08-20T15:42:10.042Z,1.00
2018-08-20T15:44:38.165Z,1.00
2018-08-20T15:47:06.305Z,1.00
2018-08-20T15:49:34.434Z,1.00
2018-08-20T15:52:02.564Z,1.00
2018-08-20T15:54:30.672Z,1.00
2018-08-20T15:56:58.801Z,1.00
2018-08-20T15:59:26.929Z,1.00
2018-08-20T16:01:55.063Z,1.00
2018-08-20T16:04:23.213Z,1.00
2018-08-20T16:06:51.369Z,1.00
2018-08-20T16:09:19.498Z,1.00
2018-08-20T16:11:47.657Z,1.00
2018-08-20T16:14:15.797Z,1.00
2018-08-20T16:16:44.071Z,1.00
2018-08-20T16:19:13.234Z,1.00
2018-08-20T16:21:41.458Z,1.00
2018-08-20T16:24:09.682Z,1.00
2018-08-20T16:26:37.873Z,1.00
2018-08-20T16:29:06.095Z,1.00
2018-08-20T16:31:34.329Z,1.00
2018-08-20T16:34:02.481Z,1.00
2018-08-20T16:36:30.675Z,1.00
2018-08-20T16:38:58.838Z,1.00
2018-08-20T16:41:27.025Z,1.00
2018-08-20T16:43:55.162Z,1.00
2018-08-20T16:46:23.369Z,1.00
2018-08-20T16:48:51.596Z,1.00
2018-08-20T16:51:19.831Z,1.00
2018-08-20T16:53:47.987Z,1.00
2018-08-20T16:56:16.276Z,1.00
2018-08-20T16:58:44.441Z,1.00
2018-08-20T17:01:15.070Z,1.00
2018-08-20T17:03:43.231Z,1.00
2018-08-20T17:06:11.399Z,1.00
2018-08-20T17:08:42.027Z,1.00
2018-08-20T17:11:10.938Z,1.00
2018-08-20T17:13:39.061Z,1.00
2018-08-20T17:16:09.697Z,1.00
2018-08-20T17:18:37.917Z,1.00
2018-08-20T17:21:06.242Z,1.00
2018-08-20T17:23:35.001Z,1.00
2018-08-20T17:26:03.141Z,1.00
2018-08-20T17:28:31.335Z,1.00
2018-08-20T17:31:01.162Z,1.00
2018-08-20T17:33:32.925Z,1.00
2018-08-20T17:36:01.090Z,1.00
2018-08-20T17:38:29.310Z,1.00
2018-08-20T17:40:57.438Z,1.00
2018-08-20T17:43:25.624Z,1.30
2018-08-20T17:45:55.311Z,1.30
2018-08-20T17:48:30.765Z,1.90
2018-08-20T17:50:59.235Z,4.70
2018-08-20T17:53:38.824Z,5.50
2018-08-20T17:56:06.966Z,7.00
2018-08-20T17:58:35.106Z,8.80
2018-08-20T18:01:04.286Z,10.30
2018-08-20T18:03:32.849Z,11.50
2018-08-20T18:06:02.949Z,11.40
2018-08-20T18:08:32.145Z,11.30
2018-08-20T18:11:00.601Z,12.30
2018-08-20T18:13:36.530Z,14.50
2018-08-20T18:16:06.278Z,14.90
2018-08-20T18:18:34.978Z,14.50
2018-08-20T18:21:03.125Z,15.30
2018-08-20T18:23:32.862Z,15.20
2018-08-20T18:26:01.051Z,16.90
2018-08-20T18:28:38.722Z,19.40
2018-08-20T18:31:10.766Z,22.80
2018-08-20T18:33:40.258Z,22.20
2018-08-20T18:36:14.902Z,23.40
2018-08-20T18:38:48.994Z,24.40
2018-08-20T18:41:17.277Z,24.90
2018-08-20T18:43:45.698Z,28.70
2018-08-20T18:46:14.050Z,29.70
2018-08-20T18:48:42.402Z,29.30
2018-08-20T18:51:14.260Z,30.50
2018-08-20T18:53:42.499Z,28.50
2018-08-20T18:56:14.248Z,29.40
2018-08-20T18:58:43.134Z,29.10
2018-08-20T19:01:11.897Z,29.20
2018-08-20T19:03:49.435Z,29.60
2018-08-20T19:06:18.310Z,30.00
2018-08-20T19:08:46.479Z,30.00
2018-08-20T19:11:15.470Z,30.00
2018-08-20T19:13:44.166Z,30.50
2018-08-20T19:16:35.588Z,31.10
2018-08-20T19:19:03.886Z,31.90
2018-08-20T19:21:32.394Z,31.90
2018-08-20T19:24:01.026Z,33.40
2018-08-20T19:26:30.227Z,32.90
2018-08-20T19:28:58.479Z,34.00
2018-08-20T19:31:26.621Z,34.70
2018-08-20T19:33:54.826Z,34.70
2018-08-20T19:36:22.970Z,34.50
2018-08-20T19:38:51.159Z,33.70
2018-08-20T19:41:19.334Z,32.50
2018-08-20T19:43:48.564Z,32.00
2018-08-20T19:46:31.907Z,32.30
2018-08-20T19:49:05.647Z,33.70
2018-08-20T19:51:34.877Z,33.80
2018-08-20T19:54:03.057Z,32.20
2018-08-20T19:56:37.404Z,35.50
2018-08-20T19:59:05.797Z,68.80
2018-08-20T20:01:35.026Z,84.50
2018-08-20T20:04:05.233Z,95.40
2018-08-20T20:06:38.200Z,99.90
2018-08-20T20:09:09.982Z,99.90
2018-08-20T20:11:47.081Z,99.90
2018-08-20T20:14:22.837Z,99.90
2018-08-20T20:16:57.138Z,99.90
2018-08-20T20:19:30.097Z,99.90
2018-08-20T20:21:59.292Z,99.90
2018-08-20T20:24:27.583Z,99.90
2018-08-20T20:26:55.759Z,99.90
2018-08-20T20:29:24.038Z,99.90
2018-08-20T20:31:52.302Z,99.90
2018-08-20T20:34:20.561Z,99.90
2018-08-20T20:36:50.802Z,99.90
2018-08-20T20:39:19.999Z,99.90
2018-08-20T20:41:48.296Z,99.90
2018-08-20T20:44:16.539Z,99.90
2018-08-20T20:46:44.828Z,99.90
2018-08-20T20:49:13.114Z,99.90
2018-08-20T20:51:41.406Z,99.90
2018-08-20T20:54:10.702Z,99.90
2018-08-20T20:56:39.015Z,99.90
2018-08-20T20:59:07.506Z,99.90
2018-08-20T21:01:35.732Z,99.90
2018-08-20T21:04:06.328Z,99.90
2018-08-20T21:06:40.452Z,99.90
2018-08-20T21:09:10.045Z,99.90
2018-08-20T21:11:38.250Z,99.90
2018-08-20T21:14:06.530Z,99.90
2018-08-20T21:16:34.711Z,99.90
2018-08-20T21:19:03.631Z,99.90
2018-08-20T21:21:33.483Z,99.90
2018-08-20T21:24:01.779Z,99.90
2018-08-20T21:26:30.044Z,99.90
2018-08-20T21:28:58.323Z,99.90
2018-08-20T21:31:30.385Z,99.90
2018-08-20T21:34:00.207Z,99.90
2018-08-20T21:36:28.400Z,99.90
2018-08-20T21:38:56.659Z,99.90
2018-08-20T21:41:26.480Z,99.90
2018-08-20T21:43:54.814Z,99.90
2018-08-20T21:46:23.083Z,99.90
2018-08-20T21:48:51.299Z,99.90
2018-08-20T21:51:22.535Z,99.90
2018-08-20T21:53:50.815Z,99.90
2018-08-20T21:56:19.113Z,99.90
2018-08-20T21:58:47.277Z,99.90
2018-08-20T22:01:16.616Z,99.90
2018-08-20T22:03:45.052Z,99.90
2018-08-20T22:06:23.909Z,99.90
2018-08-20T22:08:53.150Z,99.90
2018-08-20T22:11:22.344Z,99.90
2018-08-20T22:13:51.544Z,99.90
2018-08-20T22:16:31.780Z,99.90
2018-08-20T22:19:03.682Z,99.90
2018-08-20T22:21:31.953Z,99.90
2018-08-20T22:24:02.153Z,99.90
2018-08-20T22:26:30.304Z,99.90
2018-08-20T22:28:58.899Z,99.90
2018-08-20T22:31:27.110Z,99.90
2018-08-20T22:34:00.633Z,99.90
2018-08-20T22:36:30.217Z,99.90
2018-08-20T22:39:00.657Z,99.90
2018-08-20T22:41:34.338Z,99.90
2018-08-20T22:44:02.499Z,99.90
2018-08-20T22:46:30.682Z,99.90
2018-08-20T22:49:03.570Z,99.90
2018-08-20T22:51:33.723Z,99.90
2018-08-20T22:54:02.299Z,99.90
2018-08-20T22:56:32.187Z,99.90
2018-08-20T22:59:08.566Z,99.90
2018-08-20T23:01:36.838Z,99.90
2018-08-20T23:04:06.350Z,99.90
2018-08-20T23:06:34.634Z,99.90
2018-08-20T23:09:19.864Z,99.90
2018-08-20T23:11:49.078Z,99.90
2018-08-20T23:14:18.302Z,99.90
2018-08-20T23:16:52.832Z,99.90
2018-08-20T23:19:22.122Z,99.90
2018-08-20T23:21:53.562Z,99.90
2018-08-20T23:24:21.730Z,99.90
2018-08-20T23:26:49.900Z,99.90
2018-08-20T23:29:18.199Z,99.90
2018-08-20T23:31:46.433Z,99.90
2018-08-20T23:34:21.247Z,99.90
2018-08-20T23:36:53.358Z,99.90
2018-08-20T23:39:21.532Z,99.90
2018-08-20T23:41:49.811Z,99.90
2018-08-20T23:44:18.106Z,99.90
2018-08-20T23:46:49.538Z,99.90
2018-08-20T23:49:17.853Z,99.90
2018-08-20T23:51:46.133Z,99.90
2018-08-20T23:54:15.416Z,99.90
2018-08-20T23:56:49.090Z,99.90
2018-08-20T23:59:17.249Z,99.90
